sensor_id;sensor_type;location;lat;lon;timestamp;temperature;humidity
5846;DHT22;2949;50.778;7.094;2023-02-26T00:02:23;-1.40;99.90
5846;DHT22;2949;50.778;7.094;2023-02-26T00:04:49;-1.50;99.90
5846;DHT22;2949;50.778;7.094;2023-02-26T00:07:14;-1.50;99.90
5846;DHT22;2949;50.778;7.094;2023-02-26T00:09:40;-1.60;99.90
5846;DHT22;2949;50.778;7.094;2023-02-26T00:12:06;-1.70;99.90
5846;DHT22;2949;50.778;7.094;2023-02-26T00:14:31;-1.80;99.90
5846;DHT22;2949;50.778;7.094;2023-02-26T00:19:49;-1.90;99.90
5846;DHT22;2949;50.778;7.094;2023-02-26T00:22:15;-2.00;99.90
5846;DHT22;2949;50.778;7.094;2023-02-26T00:24:41;-2.00;99.90
5846;DHT22;2949;50.778;7.094;2023-02-26T00:27:06;-2.00;99.90
5846;DHT22;2949;50.778;7.094;2023-02-26T00:29:34;-1.90;99.90
5846;DHT22;2949;50.778;7.094;2023-02-26T00:31:59;-1.90;99.90
5846;DHT22;2949;50.778;7.094;2023-02-26T00:34:25;-1.80;99.90
5846;DHT22;2949;50.778;7.094;2023-02-26T00:43:05;-1.40;99.90
5846;DHT22;2949;50.778;7.094;2023-02-26T00:45:31;-1.40;99.90
5846;DHT22;2949;50.778;7.094;2023-02-26T00:48:18;-1.30;99.90
5846;DHT22;2949;50.778;7.094;2023-02-26T00:50:55;-1.10;99.90
5846;DHT22;2949;50.778;7.094;2023-02-26T00:53:38;-1.10;99.90
5846;DHT22;2949;50.778;7.094;2023-02-26T00:56:08;-0.90;99.90
5846;DHT22;2949;50.778;7.094;2023-02-26T00:58:33;-0.80;99.90
5846;DHT22;2949;50.778;7.094;2023-02-26T01:00:59;-0.70;99.90
5846;DHT22;2949;50.778;7.094;2023-02-26T01:03:25;-0.70;99.90
5846;DHT22;2949;50.778;7.094;2023-02-26T01:05:51;-0.60;99.90
5846;DHT22;2949;50.778;7.094;2023-02-26T01:08:49;-0.60;99.90
5846;DHT22;2949;50.778;7.094;2023-02-26T01:11:15;-0.60;99.90
5846;DHT22;2949;50.778;7.094;2023-02-26T01:13:41;-0.60;99.90
5846;DHT22;2949;50.778;7.094;2023-02-26T01:16:10;-0.70;99.90
5846;DHT22;2949;50.778;7.094;2023-02-26T01:18:42;-0.80;99.90
5846;DHT22;2949;50.778;7.094;2023-02-26T01:21:14;-0.90;99.90
5846;DHT22;2949;50.778;7.094;2023-02-26T01:23:46;-1.00;99.90
5846;DHT22;2949;50.778;7.094;2023-02-26T01:26:26;-1.20;99.90
5846;DHT22;2949;50.778;7.094;2023-02-26T01:28:52;-1.20;99.90
5846;DHT22;2949;50.778;7.094;2023-02-26T01:31:49;-1.30;99.90
5846;DHT22;2949;50.778;7.094;2023-02-26T01:37:01;-1.40;99.90
5846;DHT22;2949;50.778;7.094;2023-02-26T01:39:33;-1.50;99.90
5846;DHT22;2949;50.778;7.094;2023-02-26T01:42:14;-1.50;99.90
5846;DHT22;2949;50.778;7.094;2023-02-26T01:44:58;-1.50;99.90
5846;DHT22;2949;50.778;7.094;2023-02-26T01:50:16;-1.60;99.90
5846;DHT22;2949;50.778;7.094;2023-02-26T01:55:21;-1.60;99.90
5846;DHT22;2949;50.778;7.094;2023-02-26T01:57:50;-1.60;99.90
5846;DHT22;2949;50.778;7.094;2023-02-26T02:00:16;-1.70;99.90
5846;DHT22;2949;50.778;7.094;2023-02-26T02:02:42;-1.70;99.90
5846;DHT22;2949;50.778;7.094;2023-02-26T02:05:21;-1.80;99.90
5846;DHT22;2949;50.778;7.094;2023-02-26T02:07:49;-1.80;99.90
5846;DHT22;2949;50.778;7.094;2023-02-26T02:10:15;-1.90;99.90
5846;DHT22;2949;50.778;7.094;2023-02-26T02:12:59;-2.00;99.90
5846;DHT22;2949;50.778;7.094;2023-02-26T02:15:39;-2.00;99.90
5846;DHT22;2949;50.778;7.094;2023-02-26T02:18:20;-2.10;99.90
5846;DHT22;2949;50.778;7.094;2023-02-26T02:29:35;-2.30;99.90
5846;DHT22;2949;50.778;7.094;2023-02-26T02:34:15;-2.60;99.90
5846;DHT22;2949;50.778;7.094;2023-02-26T02:36:45;-2.60;99.90
5846;DHT22;2949;50.778;7.094;2023-02-26T02:39:22;-2.60;99.90
5846;DHT22;2949;50.778;7.094;2023-02-26T02:41:54;-2.70;99.90
5846;DHT22;2949;50.778;7.094;2023-02-26T02:44:24;-2.70;99.90
5846;DHT22;2949;50.778;7.094;2023-02-26T02:46:52;-2.70;99.90
5846;DHT22;2949;50.778;7.094;2023-02-26T02:49:27;-2.80;99.90
5846;DHT22;2949;50.778;7.094;2023-02-26T02:51:59;-2.80;99.90
5846;DHT22;2949;50.778;7.094;2023-02-26T02:54:34;-2.90;99.90
5846;DHT22;2949;50.778;7.094;2023-02-26T02:57:25;-2.90;99.90
5846;DHT22;2949;50.778;7.094;2023-02-26T02:59:57;-2.80;99.90
5846;DHT22;2949;50.778;7.094;2023-02-26T03:02:46;-2.80;99.90
5846;DHT22;2949;50.778;7.094;2023-02-26T03:05:14;-2.80;99.90
5846;DHT22;2949;50.778;7.094;2023-02-26T03:07:49;-2.80;99.90
5846;DHT22;2949;50.778;7.094;2023-02-26T03:10:16;-2.80;99.90
5846;DHT22;2949;50.778;7.094;2023-02-26T03:12:42;-2.70;99.90
5846;DHT22;2949;50.778;7.094;2023-02-26T03:15:08;-2.70;99.90
5846;DHT22;2949;50.778;7.094;2023-02-26T03:17:42;-2.60;99.90
5846;DHT22;2949;50.778;7.094;2023-02-26T03:20:25;-2.40;99.90
5846;DHT22;2949;50.778;7.094;2023-02-26T03:25:28;-2.40;99.90
5846;DHT22;2949;50.778;7.094;2023-02-26T03:28:11;-2.40;99.90
5846;DHT22;2949;50.778;7.094;2023-02-26T03:34:07;-2.50;99.90
5846;DHT22;2949;50.778;7.094;2023-02-26T03:36:21;-2.60;99.90
5846;DHT22;2949;50.778;7.094;2023-02-26T03:39:02;-2.60;99.90
5846;DHT22;2949;50.778;7.094;2023-02-26T03:41:42;-2.60;99.90
5846;DHT22;2949;50.778;7.094;2023-02-26T03:47:13;-2.70;99.90
5846;DHT22;2949;50.778;7.094;2023-02-26T03:52:08;-2.70;99.90
5846;DHT22;2949;50.778;7.094;2023-02-26T03:55:04;-2.70;99.90
5846;DHT22;2949;50.778;7.094;2023-02-26T03:57:26;-2.60;99.90
5846;DHT22;2949;50.778;7.094;2023-02-26T03:59:52;-2.60;99.90
5846;DHT22;2949;50.778;7.094;2023-02-26T04:02:24;-2.50;99.90
5846;DHT22;2949;50.778;7.094;2023-02-26T04:05:02;-2.50;99.90
5846;DHT22;2949;50.778;7.094;2023-02-26T04:07:28;-2.50;99.90
5846;DHT22;2949;50.778;7.094;2023-02-26T04:09:55;-2.50;99.90
5846;DHT22;2949;50.778;7.094;2023-02-26T04:12:22;-2.40;99.90
5846;DHT22;2949;50.778;7.094;2023-02-26T04:14:48;-2.40;99.90
5846;DHT22;2949;50.778;7.094;2023-02-26T04:17:14;-2.40;99.90
5846;DHT22;2949;50.778;7.094;2023-02-26T04:19:39;-2.40;99.90
5846;DHT22;2949;50.778;7.094;2023-02-26T04:22:05;-2.40;99.90
5846;DHT22;2949;50.778;7.094;2023-02-26T04:24:30;-2.50;99.90
5846;DHT22;2949;50.778;7.094;2023-02-26T04:26:56;-2.50;99.90
5846;DHT22;2949;50.778;7.094;2023-02-26T04:29:21;-2.50;99.90
5846;DHT22;2949;50.778;7.094;2023-02-26T04:31:47;-2.50;99.90
5846;DHT22;2949;50.778;7.094;2023-02-26T04:34:12;-2.50;99.90
5846;DHT22;2949;50.778;7.094;2023-02-26T04:36:38;-2.60;99.90
5846;DHT22;2949;50.778;7.094;2023-02-26T04:39:03;-2.60;99.90
5846;DHT22;2949;50.778;7.094;2023-02-26T04:41:29;-2.60;99.90
5846;DHT22;2949;50.778;7.094;2023-02-26T04:43:54;-2.70;99.90
5846;DHT22;2949;50.778;7.094;2023-02-26T04:46:20;-2.70;99.90
5846;DHT22;2949;50.778;7.094;2023-02-26T04:48:45;-2.70;99.90
5846;DHT22;2949;50.778;7.094;2023-02-26T04:51:11;-2.70;99.90
5846;DHT22;2949;50.778;7.094;2023-02-26T04:53:36;-2.80;99.90
5846;DHT22;2949;50.778;7.094;2023-02-26T04:56:02;-2.80;99.90
5846;DHT22;2949;50.778;7.094;2023-02-26T04:58:28;-2.80;99.90
5846;DHT22;2949;50.778;7.094;2023-02-26T05:00:53;-2.80;99.90
5846;DHT22;2949;50.778;7.094;2023-02-26T05:03:20;-2.80;99.90
5846;DHT22;2949;50.778;7.094;2023-02-26T05:05:45;-2.80;99.90
5846;DHT22;2949;50.778;7.094;2023-02-26T05:08:12;-2.80;99.90
5846;DHT22;2949;50.778;7.094;2023-02-26T05:10:37;-2.80;99.90
5846;DHT22;2949;50.778;7.094;2023-02-26T05:13:03;-2.80;99.90
5846;DHT22;2949;50.778;7.094;2023-02-26T05:15:29;-2.80;99.90
5846;DHT22;2949;50.778;7.094;2023-02-26T05:17:54;-2.80;99.90
5846;DHT22;2949;50.778;7.094;2023-02-26T05:20:20;-2.90;99.90
5846;DHT22;2949;50.778;7.094;2023-02-26T05:22:45;-3.00;99.90
5846;DHT22;2949;50.778;7.094;2023-02-26T05:25:11;-3.00;99.90
5846;DHT22;2949;50.778;7.094;2023-02-26T05:27:37;-3.00;99.90
5846;DHT22;2949;50.778;7.094;2023-02-26T05:30:05;-3.00;99.90
5846;DHT22;2949;50.778;7.094;2023-02-26T05:32:31;-3.00;99.90
5846;DHT22;2949;50.778;7.094;2023-02-26T05:34:56;-3.00;99.90
5846;DHT22;2949;50.778;7.094;2023-02-26T05:37:22;-2.90;99.90
5846;DHT22;2949;50.778;7.094;2023-02-26T05:39:47;-2.90;99.90
5846;DHT22;2949;50.778;7.094;2023-02-26T05:42:13;-2.70;99.90
5846;DHT22;2949;50.778;7.094;2023-02-26T05:44:38;-2.70;99.90
5846;DHT22;2949;50.778;7.094;2023-02-26T05:47:04;-2.60;99.90
5846;DHT22;2949;50.778;7.094;2023-02-26T05:49:29;-2.50;99.90
5846;DHT22;2949;50.778;7.094;2023-02-26T05:51:55;-2.50;99.90
5846;DHT22;2949;50.778;7.094;2023-02-26T05:54:20;-2.50;99.90
5846;DHT22;2949;50.778;7.094;2023-02-26T05:56:46;-2.50;99.90
5846;DHT22;2949;50.778;7.094;2023-02-26T05:59:11;-2.50;99.90
5846;DHT22;2949;50.778;7.094;2023-02-26T06:01:37;-2.60;99.90
5846;DHT22;2949;50.778;7.094;2023-02-26T06:04:04;-2.60;99.90
5846;DHT22;2949;50.778;7.094;2023-02-26T06:06:30;-2.70;99.90
5846;DHT22;2949;50.778;7.094;2023-02-26T06:08:56;-2.80;99.90
5846;DHT22;2949;50.778;7.094;2023-02-26T06:11:21;-2.80;99.90
5846;DHT22;2949;50.778;7.094;2023-02-26T06:13:47;-2.90;99.90
5846;DHT22;2949;50.778;7.094;2023-02-26T06:16:13;-2.90;99.90
5846;DHT22;2949;50.778;7.094;2023-02-26T06:18:38;-2.90;99.90
5846;DHT22;2949;50.778;7.094;2023-02-26T06:21:04;-2.90;99.90
5846;DHT22;2949;50.778;7.094;2023-02-26T06:23:29;-2.90;99.90
5846;DHT22;2949;50.778;7.094;2023-02-26T06:25:55;-2.90;99.90
5846;DHT22;2949;50.778;7.094;2023-02-26T06:28:21;-2.90;99.90
5846;DHT22;2949;50.778;7.094;2023-02-26T06:30:48;-2.90;99.90
5846;DHT22;2949;50.778;7.094;2023-02-26T06:33:14;-2.90;99.90
5846;DHT22;2949;50.778;7.094;2023-02-26T06:35:39;-2.80;99.90
5846;DHT22;2949;50.778;7.094;2023-02-26T06:38:06;-2.80;99.90
5846;DHT22;2949;50.778;7.094;2023-02-26T06:40:32;-2.80;99.90
5846;DHT22;2949;50.778;7.094;2023-02-26T06:42:58;-2.70;99.90
5846;DHT22;2949;50.778;7.094;2023-02-26T06:45:23;-2.60;99.90
5846;DHT22;2949;50.778;7.094;2023-02-26T06:47:52;-2.60;99.90
5846;DHT22;2949;50.778;7.094;2023-02-26T06:50:18;-2.50;99.90
5846;DHT22;2949;50.778;7.094;2023-02-26T06:52:43;-2.50;99.90
5846;DHT22;2949;50.778;7.094;2023-02-26T06:55:09;-2.40;99.90
5846;DHT22;2949;50.778;7.094;2023-02-26T06:57:35;-2.30;99.90
5846;DHT22;2949;50.778;7.094;2023-02-26T07:00:01;-2.20;99.90
5846;DHT22;2949;50.778;7.094;2023-02-26T07:02:27;-2.10;99.90
5846;DHT22;2949;50.778;7.094;2023-02-26T07:04:52;-1.90;99.90
5846;DHT22;2949;50.778;7.094;2023-02-26T07:07:18;-1.60;99.90
5846;DHT22;2949;50.778;7.094;2023-02-26T07:09:44;-0.40;99.90
5846;DHT22;2949;50.778;7.094;2023-02-26T07:12:10;1.90;99.90
5846;DHT22;2949;50.778;7.094;2023-02-26T07:14:36;4.20;99.90
5846;DHT22;2949;50.778;7.094;2023-02-26T07:17:02;6.00;99.90
5846;DHT22;2949;50.778;7.094;2023-02-26T07:19:27;7.40;99.90
5846;DHT22;2949;50.778;7.094;2023-02-26T07:21:53;8.30;99.90
5846;DHT22;2949;50.778;7.094;2023-02-26T07:24:20;9.30;99.90
5846;DHT22;2949;50.778;7.094;2023-02-26T07:26:45;9.90;98.40
5846;DHT22;2949;50.778;7.094;2023-02-26T07:29:11;10.50;94.50
5846;DHT22;2949;50.778;7.094;2023-02-26T07:31:37;11.30;93.20
5846;DHT22;2949;50.778;7.094;2023-02-26T07:34:02;12.10;87.70
5846;DHT22;2949;50.778;7.094;2023-02-26T07:36:28;11.70;87.80
5846;DHT22;2949;50.778;7.094;2023-02-26T07:38:53;12.10;83.10
5846;DHT22;2949;50.778;7.094;2023-02-26T07:41:19;12.50;79.20
5846;DHT22;2949;50.778;7.094;2023-02-26T07:43:44;13.00;78.00
5846;DHT22;2949;50.778;7.094;2023-02-26T07:46:11;13.30;73.70
5846;DHT22;2949;50.778;7.094;2023-02-26T07:48:36;13.60;72.10
5846;DHT22;2949;50.778;7.094;2023-02-26T07:51:02;14.00;69.40
5846;DHT22;2949;50.778;7.094;2023-02-26T07:53:28;14.60;67.60
5846;DHT22;2949;50.778;7.094;2023-02-26T07:55:53;15.00;64.00
5846;DHT22;2949;50.778;7.094;2023-02-26T07:58:19;15.00;63.40
5846;DHT22;2949;50.778;7.094;2023-02-26T08:00:44;15.40;61.70
5846;DHT22;2949;50.778;7.094;2023-02-26T08:03:10;15.60;59.60
5846;DHT22;2949;50.778;7.094;2023-02-26T08:05:36;15.40;58.20
5846;DHT22;2949;50.778;7.094;2023-02-26T08:08:01;15.20;58.50
5846;DHT22;2949;50.778;7.094;2023-02-26T08:10:28;15.80;59.00
5846;DHT22;2949;50.778;7.094;2023-02-26T08:12:53;16.40;58.70
5846;DHT22;2949;50.778;7.094;2023-02-26T08:15:19;17.00;56.20
5846;DHT22;2949;50.778;7.094;2023-02-26T08:17:44;17.40;55.00
5846;DHT22;2949;50.778;7.094;2023-02-26T08:20:10;17.40;53.00
5846;DHT22;2949;50.778;7.094;2023-02-26T08:22:36;16.30;52.20
5846;DHT22;2949;50.778;7.094;2023-02-26T08:25:02;13.70;53.10
5846;DHT22;2949;50.778;7.094;2023-02-26T08:27:28;11.00;59.60
5846;DHT22;2949;50.778;7.094;2023-02-26T08:29:54;9.00;71.00
5846;DHT22;2949;50.778;7.094;2023-02-26T08:32:19;7.80;83.50
5846;DHT22;2949;50.778;7.094;2023-02-26T08:34:47;8.10;86.30
5846;DHT22;2949;50.778;7.094;2023-02-26T08:37:12;10.20;78.70
5846;DHT22;2949;50.778;7.094;2023-02-26T08:39:38;12.20;72.30
5846;DHT22;2949;50.778;7.094;2023-02-26T08:42:05;14.00;65.50
5846;DHT22;2949;50.778;7.094;2023-02-26T08:44:32;15.50;59.90
5846;DHT22;2949;50.778;7.094;2023-02-26T08:46:58;16.00;55.40
5846;DHT22;2949;50.778;7.094;2023-02-26T08:49:23;16.10;54.00
5846;DHT22;2949;50.778;7.094;2023-02-26T08:51:49;16.20;54.10
5846;DHT22;2949;50.778;7.094;2023-02-26T08:54:14;16.60;53.40
5846;DHT22;2949;50.778;7.094;2023-02-26T08:56:40;15.80;51.10
5846;DHT22;2949;50.778;7.094;2023-02-26T08:59:06;13.60;52.90
5846;DHT22;2949;50.778;7.094;2023-02-26T09:01:31;13.90;57.10
5846;DHT22;2949;50.778;7.094;2023-02-26T09:03:57;14.90;56.20
5846;DHT22;2949;50.778;7.094;2023-02-26T09:06:23;14.80;54.30
5846;DHT22;2949;50.778;7.094;2023-02-26T09:08:48;15.30;53.10
5846;DHT22;2949;50.778;7.094;2023-02-26T09:11:14;15.70;53.50
5846;DHT22;2949;50.778;7.094;2023-02-26T09:13:39;16.50;50.40
5846;DHT22;2949;50.778;7.094;2023-02-26T09:16:05;17.10;50.60
5846;DHT22;2949;50.778;7.094;2023-02-26T09:18:31;17.20;49.40
5846;DHT22;2949;50.778;7.094;2023-02-26T09:20:57;17.30;49.40
5846;DHT22;2949;50.778;7.094;2023-02-26T09:23:23;16.60;47.80
5846;DHT22;2949;50.778;7.094;2023-02-26T09:25:56;16.00;49.40
5846;DHT22;2949;50.778;7.094;2023-02-26T09:28:22;15.60;50.60
5846;DHT22;2949;50.778;7.094;2023-02-26T09:30:53;16.40;50.20
5846;DHT22;2949;50.778;7.094;2023-02-26T09:33:19;16.80;49.40
5846;DHT22;2949;50.778;7.094;2023-02-26T10:37:08;13.50;43.20
5846;DHT22;2949;50.778;7.094;2023-02-26T10:42:17;9.60;47.00
5846;DHT22;2949;50.778;7.094;2023-02-26T10:47:36;8.00;53.40
5846;DHT22;2949;50.778;7.094;2023-02-26T10:50:12;7.50;56.40
5846;DHT22;2949;50.778;7.094;2023-02-26T10:52:42;7.20;56.60
5846;DHT22;2949;50.778;7.094;2023-02-26T11:00:29;11.80;49.40
5846;DHT22;2949;50.778;7.094;2023-02-26T11:02:55;12.70;48.40
5846;DHT22;2949;50.778;7.094;2023-02-26T11:05:24;12.40;46.10
5846;DHT22;2949;50.778;7.094;2023-02-26T11:11:40;8.80;51.40
5846;DHT22;2949;50.778;7.094;2023-02-26T11:14:06;7.20;55.50
5846;DHT22;2949;50.778;7.094;2023-02-26T11:16:33;6.40;59.00
5846;DHT22;2949;50.778;7.094;2023-02-26T11:19:00;6.00;63.00
5846;DHT22;2949;50.778;7.094;2023-02-26T11:21:35;5.70;64.50
5846;DHT22;2949;50.778;7.094;2023-02-26T11:26:35;5.20;70.20
5846;DHT22;2949;50.778;7.094;2023-02-26T11:29:01;5.00;70.70
5846;DHT22;2949;50.778;7.094;2023-02-26T11:31:28;4.70;74.70
5846;DHT22;2949;50.778;7.094;2023-02-26T11:34:04;4.50;73.90
5846;DHT22;2949;50.778;7.094;2023-02-26T11:36:33;4.40;70.60
5846;DHT22;2949;50.778;7.094;2023-02-26T11:39:08;4.40;72.20
5846;DHT22;2949;50.778;7.094;2023-02-26T11:41:39;4.40;72.00
5846;DHT22;2949;50.778;7.094;2023-02-26T11:44:15;4.60;72.20
5846;DHT22;2949;50.778;7.094;2023-02-26T11:46:52;4.60;68.90
5846;DHT22;2949;50.778;7.094;2023-02-26T11:49:21;4.90;72.80
5846;DHT22;2949;50.778;7.094;2023-02-26T11:52:45;5.40;72.10
5846;DHT22;2949;50.778;7.094;2023-02-26T11:54:46;5.70;63.60
5846;DHT22;2949;50.778;7.094;2023-02-26T11:57:23;6.30;62.50
5846;DHT22;2949;50.778;7.094;2023-02-26T11:59:51;6.50;58.80
5846;DHT22;2949;50.778;7.094;2023-02-26T12:02:20;6.40;57.40
5846;DHT22;2949;50.778;7.094;2023-02-26T12:04:50;6.30;58.50
5846;DHT22;2949;50.778;7.094;2023-02-26T12:07:17;6.20;61.50
5846;DHT22;2949;50.778;7.094;2023-02-26T12:09:43;6.00;64.70
5846;DHT22;2949;50.778;7.094;2023-02-26T12:20:36;4.80;65.30
5846;DHT22;2949;50.778;7.094;2023-02-26T12:34:13;4.90;68.00
5846;DHT22;2949;50.778;7.094;2023-02-26T12:40:04;5.20;65.30
5846;DHT22;2949;50.778;7.094;2023-02-26T12:45:52;5.90;64.80
5846;DHT22;2949;50.778;7.094;2023-02-26T12:51:38;5.80;68.00
5846;DHT22;2949;50.778;7.094;2023-02-26T12:57:13;5.60;66.00
5846;DHT22;2949;50.778;7.094;2023-02-26T13:03:03;5.50;70.00
5846;DHT22;2949;50.778;7.094;2023-02-26T13:14:28;5.80;67.00
5846;DHT22;2949;50.778;7.094;2023-02-26T13:20:16;5.60;66.20
5846;DHT22;2949;50.778;7.094;2023-02-26T13:22:49;5.60;63.20
5846;DHT22;2949;50.778;7.094;2023-02-26T13:25:26;5.50;65.10
5846;DHT22;2949;50.778;7.094;2023-02-26T13:27:56;5.50;66.80
5846;DHT22;2949;50.778;7.094;2023-02-26T13:30:33;5.50;65.60
5846;DHT22;2949;50.778;7.094;2023-02-26T13:33:00;5.60;65.70
5846;DHT22;2949;50.778;7.094;2023-02-26T13:35:38;5.70;62.80
5846;DHT22;2949;50.778;7.094;2023-02-26T13:43:51;5.80;61.00
5846;DHT22;2949;50.778;7.094;2023-02-26T13:46:35;5.70;64.10
5846;DHT22;2949;50.778;7.094;2023-02-26T13:51:53;5.90;65.40
5846;DHT22;2949;50.778;7.094;2023-02-26T13:59:52;5.70;66.50
5846;DHT22;2949;50.778;7.094;2023-02-26T14:04:53;5.70;66.40
5846;DHT22;2949;50.778;7.094;2023-02-26T14:13:21;5.70;66.50
5846;DHT22;2949;50.778;7.094;2023-02-26T14:16:00;5.60;63.00
5846;DHT22;2949;50.778;7.094;2023-02-26T14:27:30;5.30;63.00
5846;DHT22;2949;50.778;7.094;2023-02-26T14:30:31;5.10;66.20
5846;DHT22;2949;50.778;7.094;2023-02-26T14:35:50;4.90;70.10
5846;DHT22;2949;50.778;7.094;2023-02-26T14:38:27;5.10;68.40
5846;DHT22;2949;50.778;7.094;2023-02-26T14:41:06;5.10;68.50
5846;DHT22;2949;50.778;7.094;2023-02-26T14:43:39;5.00;67.30
5846;DHT22;2949;50.778;7.094;2023-02-26T14:46:08;4.90;65.30
5846;DHT22;2949;50.778;7.094;2023-02-26T14:48:35;4.80;64.80
5846;DHT22;2949;50.778;7.094;2023-02-26T14:57:03;4.30;67.70
5846;DHT22;2949;50.778;7.094;2023-02-26T15:05:10;4.50;69.60
5846;DHT22;2949;50.778;7.094;2023-02-26T15:08:06;4.60;66.20
5846;DHT22;2949;50.778;7.094;2023-02-26T15:10:36;4.70;67.40
5846;DHT22;2949;50.778;7.094;2023-02-26T15:13:32;4.80;69.20
5846;DHT22;2949;50.778;7.094;2023-02-26T15:19:20;4.80;71.50
5846;DHT22;2949;50.778;7.094;2023-02-26T15:24:37;4.50;72.00
5846;DHT22;2949;50.778;7.094;2023-02-26T15:27:06;4.40;73.10
5846;DHT22;2949;50.778;7.094;2023-02-26T15:29:36;4.30;72.90
5846;DHT22;2949;50.778;7.094;2023-02-26T15:32:26;4.20;71.80
5846;DHT22;2949;50.778;7.094;2023-02-26T15:35:06;4.00;72.90
5846;DHT22;2949;50.778;7.094;2023-02-26T15:37:34;3.90;73.70
5846;DHT22;2949;50.778;7.094;2023-02-26T15:40:04;3.90;73.10
5846;DHT22;2949;50.778;7.094;2023-02-26T15:42:33;3.90;73.00
5846;DHT22;2949;50.778;7.094;2023-02-26T15:45:03;3.80;74.80
5846;DHT22;2949;50.778;7.094;2023-02-26T15:47:30;3.80;72.80
5846;DHT22;2949;50.778;7.094;2023-02-26T15:49:56;3.80;72.70
5846;DHT22;2949;50.778;7.094;2023-02-26T15:52:24;3.80;73.50
5846;DHT22;2949;50.778;7.094;2023-02-26T15:55:03;3.80;73.30
5846;DHT22;2949;50.778;7.094;2023-02-26T15:57:29;3.80;70.20
5846;DHT22;2949;50.778;7.094;2023-02-26T16:00:12;3.80;70.50
5846;DHT22;2949;50.778;7.094;2023-02-26T16:02:41;3.70;71.30
5846;DHT22;2949;50.778;7.094;2023-02-26T16:05:09;3.60;73.70
5846;DHT22;2949;50.778;7.094;2023-02-26T16:07:37;3.40;79.50
5846;DHT22;2949;50.778;7.094;2023-02-26T16:10:06;3.30;80.60
5846;DHT22;2949;50.778;7.094;2023-02-26T16:12:38;3.20;81.10
5846;DHT22;2949;50.778;7.094;2023-02-26T16:15:12;3.20;79.00
5846;DHT22;2949;50.778;7.094;2023-02-26T16:17:42;3.20;75.60
5846;DHT22;2949;50.778;7.094;2023-02-26T16:20:18;3.10;77.80
5846;DHT22;2949;50.778;7.094;2023-02-26T16:22:56;3.00;77.30
5846;DHT22;2949;50.778;7.094;2023-02-26T16:25:29;3.00;79.00
5846;DHT22;2949;50.778;7.094;2023-02-26T16:30:32;2.90;81.30
5846;DHT22;2949;50.778;7.094;2023-02-26T16:33:00;2.90;80.20
5846;DHT22;2949;50.778;7.094;2023-02-26T16:35:31;2.90;78.50
5846;DHT22;2949;50.778;7.094;2023-02-26T16:37:59;2.80;79.30
5846;DHT22;2949;50.778;7.094;2023-02-26T16:40:34;2.80;81.60
5846;DHT22;2949;50.778;7.094;2023-02-26T16:45:55;2.60;81.40
5846;DHT22;2949;50.778;7.094;2023-02-26T16:48:25;2.50;81.80
5846;DHT22;2949;50.778;7.094;2023-02-26T16:50:56;2.40;82.20
5846;DHT22;2949;50.778;7.094;2023-02-26T16:53:23;2.40;82.70
5846;DHT22;2949;50.778;7.094;2023-02-26T16:55:55;2.30;84.10
5846;DHT22;2949;50.778;7.094;2023-02-26T16:58:22;2.10;87.00
5846;DHT22;2949;50.778;7.094;2023-02-26T17:01:02;2.00;89.00
5846;DHT22;2949;50.778;7.094;2023-02-26T17:03:29;1.80;90.50
5846;DHT22;2949;50.778;7.094;2023-02-26T17:06:03;1.70;91.20
5846;DHT22;2949;50.778;7.094;2023-02-26T17:08:57;1.60;92.30
5846;DHT22;2949;50.778;7.094;2023-02-26T17:11:29;1.50;93.60
5846;DHT22;2949;50.778;7.094;2023-02-26T17:16:46;1.50;92.30
5846;DHT22;2949;50.778;7.094;2023-02-26T17:19:12;1.50;91.80
5846;DHT22;2949;50.778;7.094;2023-02-26T17:21:49;1.60;91.40
5846;DHT22;2949;50.778;7.094;2023-02-26T17:24:22;1.50;91.20
5846;DHT22;2949;50.778;7.094;2023-02-26T17:26:50;1.50;91.80
5846;DHT22;2949;50.778;7.094;2023-02-26T17:29:18;1.30;92.60
5846;DHT22;2949;50.778;7.094;2023-02-26T17:31:45;1.20;93.30
5846;DHT22;2949;50.778;7.094;2023-02-26T17:34:11;1.10;94.40
5846;DHT22;2949;50.778;7.094;2023-02-26T17:36:36;0.90;95.10
5846;DHT22;2949;50.778;7.094;2023-02-26T17:39:02;0.80;96.00
5846;DHT22;2949;50.778;7.094;2023-02-26T17:41:28;0.70;96.70
5846;DHT22;2949;50.778;7.094;2023-02-26T17:43:55;0.60;97.80
5846;DHT22;2949;50.778;7.094;2023-02-26T17:46:20;0.50;98.40
5846;DHT22;2949;50.778;7.094;2023-02-26T17:48:46;0.40;99.70
5846;DHT22;2949;50.778;7.094;2023-02-26T17:51:11;0.40;99.90
5846;DHT22;2949;50.778;7.094;2023-02-26T17:53:38;0.30;99.90
5846;DHT22;2949;50.778;7.094;2023-02-26T17:56:16;0.30;99.90
5846;DHT22;2949;50.778;7.094;2023-02-26T17:58:43;0.20;99.90
5846;DHT22;2949;50.778;7.094;2023-02-26T18:01:10;0.10;99.90
5846;DHT22;2949;50.778;7.094;2023-02-26T18:03:35;0.00;99.90
5846;DHT22;2949;50.778;7.094;2023-02-26T18:06:02;-0.10;99.90
5846;DHT22;2949;50.778;7.094;2023-02-26T18:08:30;-0.20;99.90
5846;DHT22;2949;50.778;7.094;2023-02-26T18:10:57;-0.20;99.90
5846;DHT22;2949;50.778;7.094;2023-02-26T18:13:25;-0.30;99.90
5846;DHT22;2949;50.778;7.094;2023-02-26T18:16:11;-0.30;99.90
5846;DHT22;2949;50.778;7.094;2023-02-26T18:18:41;-0.30;99.90
5846;DHT22;2949;50.778;7.094;2023-02-26T18:21:10;-0.30;99.90
5846;DHT22;2949;50.778;7.094;2023-02-26T18:23:35;-0.40;99.90
5846;DHT22;2949;50.778;7.094;2023-02-26T18:26:01;-0.50;99.90
5846;DHT22;2949;50.778;7.094;2023-02-26T18:28:28;-0.50;99.90
5846;DHT22;2949;50.778;7.094;2023-02-26T18:30:55;-0.60;99.90
5846;DHT22;2949;50.778;7.094;2023-02-26T18:33:22;-0.60;99.90
5846;DHT22;2949;50.778;7.094;2023-02-26T18:35:50;-0.60;99.90
5846;DHT22;2949;50.778;7.094;2023-02-26T18:38:19;-0.70;99.90
5846;DHT22;2949;50.778;7.094;2023-02-26T18:40:46;-0.70;99.90
5846;DHT22;2949;50.778;7.094;2023-02-26T18:43:11;-0.80;99.90
5846;DHT22;2949;50.778;7.094;2023-02-26T18:45:42;-0.80;99.90
5846;DHT22;2949;50.778;7.094;2023-02-26T18:48:13;-0.90;99.90
5846;DHT22;2949;50.778;7.094;2023-02-26T18:50:41;-0.90;99.90
5846;DHT22;2949;50.778;7.094;2023-02-26T18:53:07;-1.00;99.90
5846;DHT22;2949;50.778;7.094;2023-02-26T18:55:33;-1.00;99.90
5846;DHT22;2949;50.778;7.094;2023-02-26T18:57:58;-1.10;99.90
5846;DHT22;2949;50.778;7.094;2023-02-26T19:00:24;-1.10;99.90
5846;DHT22;2949;50.778;7.094;2023-02-26T19:02:52;-1.10;99.90
5846;DHT22;2949;50.778;7.094;2023-02-26T19:05:17;-1.10;99.90
5846;DHT22;2949;50.778;7.094;2023-02-26T19:07:48;-1.20;99.90
5846;DHT22;2949;50.778;7.094;2023-02-26T19:10:14;-1.20;99.90
5846;DHT22;2949;50.778;7.094;2023-02-26T19:12:40;-1.30;99.90
5846;DHT22;2949;50.778;7.094;2023-02-26T19:15:07;-1.40;99.90
5846;DHT22;2949;50.778;7.094;2023-02-26T19:17:33;-1.40;99.90
5846;DHT22;2949;50.778;7.094;2023-02-26T19:19:58;-1.50;99.90
5846;DHT22;2949;50.778;7.094;2023-02-26T19:22:24;-1.50;99.90
5846;DHT22;2949;50.778;7.094;2023-02-26T19:24:49;-1.50;99.90
5846;DHT22;2949;50.778;7.094;2023-02-26T19:27:15;-1.50;99.90
5846;DHT22;2949;50.778;7.094;2023-02-26T19:29:41;-1.50;99.90
5846;DHT22;2949;50.778;7.094;2023-02-26T19:32:07;-1.60;99.90
5846;DHT22;2949;50.778;7.094;2023-02-26T19:34:33;-1.70;99.90
5846;DHT22;2949;50.778;7.094;2023-02-26T19:36:59;-1.80;99.90
5846;DHT22;2949;50.778;7.094;2023-02-26T19:39:24;-1.90;99.90
5846;DHT22;2949;50.778;7.094;2023-02-26T19:41:52;-2.00;99.90
5846;DHT22;2949;50.778;7.094;2023-02-26T19:44:19;-2.10;99.90
5846;DHT22;2949;50.778;7.094;2023-02-26T19:46:45;-2.20;99.90
5846;DHT22;2949;50.778;7.094;2023-02-26T19:49:11;-2.30;99.90
5846;DHT22;2949;50.778;7.094;2023-02-26T19:51:37;-2.30;99.90
5846;DHT22;2949;50.778;7.094;2023-02-26T19:54:03;-2.30;99.90
5846;DHT22;2949;50.778;7.094;2023-02-26T19:56:29;-2.20;99.90
5846;DHT22;2949;50.778;7.094;2023-02-26T19:58:55;-2.20;99.90
5846;DHT22;2949;50.778;7.094;2023-02-26T20:01:21;-2.20;99.90
5846;DHT22;2949;50.778;7.094;2023-02-26T20:03:46;-2.30;99.90
5846;DHT22;2949;50.778;7.094;2023-02-26T20:06:12;-2.30;99.90